createdAt,value
2019-05-17T00:02:17.618Z,101091.00
2019-05-17T00:04:46.941Z,101088.80
2019-05-17T00:07:16.685Z,101086.09
2019-05-17T00:09:47.706Z,101082.53
2019-05-17T00:12:16.627Z,101078.45
2019-05-17T00:14:47.143Z,101076.77
2019-05-17T00:17:17.350Z,101066.45
2019-05-17T00:19:46.505Z,101069.98
2019-05-17T00:22:16.669Z,101068.63
2019-05-17T00:24:47.554Z,101072.69
2019-05-17T00:27:17.212Z,101074.90
2019-05-17T00:29:46.534Z,101069.48
2019-05-17T00:32:17.039Z,101071.03
2019-05-17T00:34:47.013Z,101068.63
2019-05-17T00:37:17.354Z,101065.61
2019-05-17T00:39:47.114Z,101058.97
2019-05-17T00:42:17.007Z,101057.09
2019-05-17T00:44:47.366Z,101047.61
2019-05-17T00:47:17.129Z,101045.06
2019-05-17T00:49:46.501Z,101039.13
2019-05-17T00:52:16.695Z,101040.16
2019-05-17T00:54:46.954Z,101038.62
2019-05-17T00:57:16.576Z,101045.71
2019-05-17T00:59:47.361Z,101046.76
2019-05-17T01:02:16.304Z,101044.35
2019-05-17T01:04:47.397Z,101038.62
2019-05-17T01:07:17.557Z,101041.84
2019-05-17T01:09:47.208Z,101038.80
2019-05-17T01:12:16.445Z,101042.86
2019-05-17T01:14:46.648Z,101039.98
2019-05-17T01:17:16.566Z,101041.98
2019-05-17T01:19:47.187Z,101040.25
2019-05-17T01:22:16.867Z,101036.31
2019-05-17T01:24:46.297Z,101042.76
2019-05-17T01:27:17.060Z,101035.64
2019-05-17T01:29:46.574Z,101032.28
2019-05-17T01:32:17.197Z,101035.00
2019-05-17T01:34:46.926Z,101025.57
2019-05-17T01:37:17.146Z,101025.37
2019-05-17T01:39:46.816Z,101020.28
2019-05-17T01:42:17.204Z,101016.55
2019-05-17T01:44:47.231Z,101011.13
2019-05-17T01:47:16.626Z,101014.79
2019-05-17T01:49:46.973Z,101017.33
2019-05-17T01:52:16.750Z,100950.27
2019-05-17T01:54:46.958Z,101008.86
2019-05-17T01:57:16.820Z,101005.80
2019-05-17T01:59:46.689Z,100999.16
2019-05-17T02:02:18.013Z,100996.06
2019-05-17T02:04:46.816Z,100992.84
2019-05-17T02:07:17.254Z,100985.22
2019-05-17T02:09:47.665Z,100993.87
2019-05-17T02:12:17.334Z,100986.64
2019-05-17T02:14:46.783Z,100986.31
2019-05-17T02:17:17.292Z,100982.75
2019-05-17T02:19:46.539Z,100982.65
2019-05-17T02:22:16.717Z,100984.17
2019-05-17T02:24:46.434Z,100982.52
2019-05-17T02:27:14.990Z,100973.33
2019-05-17T02:29:43.725Z,100964.17
2019-05-17T02:32:13.007Z,100964.69
2019-05-17T02:34:43.054Z,100970.62
2019-05-17T02:37:13.629Z,100971.59
2019-05-17T02:39:53.992Z,100971.39
2019-05-17T02:42:13.841Z,100974.81
2019-05-17T02:44:43.754Z,100968.23
2019-05-17T02:47:13.286Z,100970.31
2019-05-17T02:49:42.465Z,100972.31
2019-05-17T02:52:12.443Z,100976.68
2019-05-17T02:54:43.742Z,100977.39
2019-05-17T02:57:14.283Z,100981.09
2019-05-17T02:59:43.287Z,100983.22
2019-05-17T03:02:12.811Z,100983.22
2019-05-17T03:04:43.281Z,100985.80
2019-05-17T03:07:13.530Z,100987.87
2019-05-17T03:09:43.179Z,100986.95
2019-05-17T03:12:12.896Z,100988.84
2019-05-17T03:14:43.295Z,100986.52
2019-05-17T03:17:13.989Z,100987.36
2019-05-17T03:19:43.601Z,100993.80
2019-05-17T03:22:13.295Z,100990.38
2019-05-17T03:24:43.935Z,100991.22
2019-05-17T03:27:13.382Z,100989.23
2019-05-17T03:29:42.596Z,100991.94
2019-05-17T03:32:16.709Z,100984.00
2019-05-17T03:34:44.987Z,100986.58
2019-05-17T03:37:16.073Z,100982.45
2019-05-17T03:39:42.743Z,100984.44
2019-05-17T03:42:13.173Z,100975.16
2019-05-17T03:44:43.809Z,100975.66
2019-05-17T03:47:13.132Z,100972.31
2019-05-17T03:49:43.664Z,100974.81
2019-05-17T03:52:13.617Z,100961.59
2019-05-17T03:54:43.058Z,100967.66
2019-05-17T03:57:13.427Z,100969.66
2019-05-17T03:59:43.131Z,100969.99
2019-05-17T04:02:12.415Z,100974.58
2019-05-17T04:04:42.869Z,100981.09
2019-05-17T04:07:12.688Z,100978.68
2019-05-17T04:09:43.762Z,100978.38
2019-05-17T04:12:13.647Z,100984.95
2019-05-17T04:14:43.039Z,100977.45
2019-05-17T04:17:13.095Z,100978.95
2019-05-17T04:19:42.678Z,100979.48
2019-05-17T04:22:13.758Z,100976.88
2019-05-17T04:24:43.786Z,100979.59
2019-05-17T04:27:13.574Z,100982.84
2019-05-17T04:29:42.611Z,100985.02
2019-05-17T04:32:13.142Z,100974.16
2019-05-17T04:34:43.713Z,100976.70
2019-05-17T04:37:13.054Z,100980.91
2019-05-17T04:39:43.222Z,100986.84
2019-05-17T04:42:13.518Z,100989.05
2019-05-17T04:44:43.245Z,100984.38
2019-05-17T04:47:13.369Z,100990.34
2019-05-17T04:49:44.027Z,100993.56
2019-05-17T04:52:13.787Z,100985.73
2019-05-17T04:54:42.812Z,100987.55
2019-05-17T04:57:13.156Z,100987.05
2019-05-17T04:59:43.371Z,100984.33
2019-05-17T05:02:13.201Z,100974.77
2019-05-17T05:04:43.585Z,100973.67
2019-05-17T05:07:13.691Z,100976.95
2019-05-17T05:09:43.174Z,100979.06
2019-05-17T05:12:12.497Z,100970.00
2019-05-17T05:14:43.106Z,100966.91
2019-05-17T05:17:12.770Z,100965.16
2019-05-17T05:19:42.303Z,100959.52
2019-05-17T05:22:13.533Z,100952.41
2019-05-17T05:24:42.355Z,100961.09
2019-05-17T05:27:11.647Z,100961.09
2019-05-17T05:29:41.601Z,100956.17
2019-05-17T05:32:11.809Z,100967.20
2019-05-17T05:34:42.762Z,100970.46
2019-05-17T05:37:12.578Z,100973.05
2019-05-17T05:39:41.496Z,100983.91
2019-05-17T05:42:13.630Z,100981.70
2019-05-17T05:44:41.561Z,100977.62
2019-05-17T05:47:11.609Z,100981.19
2019-05-17T05:49:42.476Z,100979.19
2019-05-17T05:52:12.411Z,100977.83
2019-05-17T05:54:41.323Z,100980.55
2019-05-17T05:57:12.463Z,100978.34
2019-05-17T05:59:42.313Z,100976.52
2019-05-17T06:02:12.295Z,100979.95
2019-05-17T06:04:42.392Z,100978.59
2019-05-17T06:07:12.715Z,100975.58
2019-05-17T06:09:42.351Z,100969.95
2019-05-17T06:12:23.420Z,100968.08
2019-05-17T06:14:41.702Z,100965.67
2019-05-17T06:17:12.460Z,100972.45
2019-05-17T06:19:42.235Z,100971.73
2019-05-17T06:22:12.022Z,100964.56
2019-05-17T06:24:42.462Z,100963.47
2019-05-17T06:27:12.329Z,100961.52
2019-05-17T06:29:41.499Z,100960.62
2019-05-17T06:32:11.851Z,100958.34
2019-05-17T06:34:42.314Z,100960.80
2019-05-17T06:37:12.914Z,100964.06
2019-05-17T06:39:41.951Z,100954.48
2019-05-17T06:42:12.057Z,100955.27
2019-05-17T06:44:41.748Z,100958.33
2019-05-17T06:47:11.964Z,100959.93
2019-05-17T06:49:42.427Z,100955.80
2019-05-17T06:52:11.669Z,100950.07
2019-05-17T06:54:41.732Z,100950.52
2019-05-17T06:57:12.614Z,100952.42
2019-05-17T06:59:40.564Z,100941.28
2019-05-17T07:02:10.384Z,100945.78
2019-05-17T07:04:39.598Z,100947.08
2019-05-17T07:07:26.502Z,100953.05
2019-05-17T07:09:55.588Z,100942.42
2019-05-17T07:12:24.602Z,100953.62
2019-05-17T07:14:53.101Z,100954.87
2019-05-17T07:17:21.822Z,100956.41
2019-05-17T07:19:50.861Z,100944.99
2019-05-17T07:22:21.252Z,100948.34
2019-05-17T07:24:50.262Z,100953.66
2019-05-17T07:27:19.356Z,100954.90
2019-05-17T07:29:49.758Z,100957.52
2019-05-17T07:32:19.439Z,100963.30
2019-05-17T07:34:50.055Z,100959.22
2019-05-17T07:37:19.572Z,100952.09
2019-05-17T07:39:58.622Z,100948.02
2019-05-17T07:42:19.556Z,100942.70
2019-05-17T07:44:49.663Z,100941.28
2019-05-17T07:47:20.150Z,100945.77
2019-05-17T07:49:49.468Z,100944.02
2019-05-17T07:52:20.485Z,100938.87
2019-05-17T07:54:50.667Z,100932.83
2019-05-17T07:57:20.717Z,100930.89
2019-05-17T07:59:50.810Z,100928.29
2019-05-17T08:02:19.800Z,100935.78
2019-05-17T08:04:50.139Z,100933.28
2019-05-17T08:07:19.697Z,100932.95
2019-05-17T08:09:50.454Z,100926.36
2019-05-17T08:12:19.963Z,100925.22
2019-05-17T08:14:50.237Z,100932.65
2019-05-17T08:17:19.850Z,100928.67
2019-05-17T08:19:49.816Z,100926.25
2019-05-17T08:22:20.233Z,100937.24
2019-05-17T08:24:49.375Z,100934.52
2019-05-17T08:27:20.131Z,100935.60
2019-05-17T08:29:49.904Z,100931.20
2019-05-17T08:32:20.833Z,100932.69
2019-05-17T08:34:51.679Z,100936.88
2019-05-17T08:37:20.434Z,100936.36
2019-05-17T08:39:50.538Z,100943.56
2019-05-17T08:42:20.451Z,100946.70
2019-05-17T08:44:49.830Z,100945.53
2019-05-17T08:47:20.866Z,100949.43
2019-05-17T08:49:49.715Z,100944.52
2019-05-17T08:52:20.019Z,100941.33
2019-05-17T08:54:49.576Z,100936.97
2019-05-17T08:57:20.551Z,100939.08
2019-05-17T08:59:49.733Z,100932.09
2019-05-17T09:02:19.917Z,100932.51
2019-05-17T09:04:49.787Z,100936.81
2019-05-17T09:07:20.351Z,100929.17
2019-05-17T09:09:50.154Z,100922.28
2019-05-17T09:12:20.651Z,100916.41
2019-05-17T09:14:49.678Z,100916.33
2019-05-17T09:17:19.340Z,100914.02
2019-05-17T09:19:50.488Z,100908.05
2019-05-17T09:22:19.782Z,100906.47
2019-05-17T09:24:49.953Z,100905.13
2019-05-17T09:27:19.758Z,100899.56
2019-05-17T09:29:49.742Z,100899.67
2019-05-17T09:32:20.089Z,100904.77
2019-05-17T09:34:49.829Z,100895.86
2019-05-17T09:37:21.779Z,100896.68
2019-05-17T09:39:49.408Z,100896.55
2019-05-17T09:42:17.865Z,100896.04
2019-05-17T09:44:46.360Z,100890.72
2019-05-17T09:47:14.879Z,100890.82
2019-05-17T09:49:43.680Z,100890.41
2019-05-17T09:52:12.482Z,100890.50
2019-05-17T09:54:45.116Z,100882.03
2019-05-17T09:57:11.487Z,100875.51
2019-05-17T09:59:40.630Z,100874.14
2019-05-17T10:02:09.547Z,100872.23
2019-05-17T10:04:39.520Z,100860.49
2019-05-17T10:07:10.145Z,100864.03
2019-05-17T10:09:40.000Z,100853.19
2019-05-17T10:12:09.550Z,100855.78
2019-05-17T10:14:38.187Z,100854.93
2019-05-17T10:17:06.776Z,100848.73
2019-05-17T10:19:35.340Z,100845.58
2019-05-17T10:22:03.817Z,100842.52
2019-05-17T10:24:37.976Z,100841.34
2019-05-17T10:27:02.526Z,100836.89
2019-05-17T10:29:31.000Z,100834.58
2019-05-17T10:31:59.924Z,100827.98
2019-05-17T10:34:29.422Z,100833.34
2019-05-17T10:36:58.051Z,100838.80
2019-05-17T10:39:26.532Z,100832.27
2019-05-17T10:41:55.117Z,100825.69
2019-05-17T10:44:23.613Z,100816.27
2019-05-17T10:46:52.112Z,100818.20
2019-05-17T10:49:20.640Z,100809.67
2019-05-17T10:51:49.493Z,100814.17
2019-05-17T10:54:20.613Z,100812.48
2019-05-17T10:56:50.235Z,100813.62
2019-05-17T10:59:20.323Z,100813.50
2019-05-17T11:01:50.184Z,100813.13
2019-05-17T11:04:19.762Z,100816.55
2019-05-17T11:06:50.106Z,100819.42
2019-05-17T11:09:20.471Z,100813.59
2019-05-17T11:11:48.846Z,100806.10
2019-05-17T11:14:17.373Z,100771.30
2019-05-17T11:16:45.867Z,100816.52
2019-05-17T11:19:14.351Z,100814.70
2019-05-17T11:21:42.830Z,100818.20
2019-05-17T11:24:11.346Z,100815.23
2019-05-17T11:26:39.824Z,100814.24
2019-05-17T11:29:08.339Z,100814.88
2019-05-17T11:31:36.822Z,100809.94
2019-05-17T11:34:05.337Z,100807.73
2019-05-17T11:36:33.814Z,100807.42
2019-05-17T11:39:02.361Z,100796.50
2019-05-17T11:41:30.835Z,100795.53
2019-05-17T11:43:59.315Z,100797.23
2019-05-17T11:46:35.666Z,100788.80
2019-05-17T11:48:58.328Z,100788.52
2019-05-17T11:51:27.450Z,100778.66
2019-05-17T11:53:56.131Z,100781.16
2019-05-17T11:56:24.909Z,100782.13
2019-05-17T11:58:53.381Z,100778.11
2019-05-17T12:01:21.871Z,100777.83
2019-05-17T12:03:50.359Z,100779.87
2019-05-17T12:06:19.107Z,100774.84
2019-05-17T12:08:47.897Z,100774.30
2019-05-17T12:11:16.580Z,100771.47
2019-05-17T12:13:45.140Z,100772.59
2019-05-17T12:16:13.627Z,100764.32
2019-05-17T12:18:42.431Z,100760.22
2019-05-17T12:21:11.028Z,100761.33
2019-05-17T12:23:39.495Z,100763.91
2019-05-17T12:26:08.027Z,100764.98
2019-05-17T12:28:36.826Z,100763.86
2019-05-17T12:31:05.309Z,100758.00
2019-05-17T12:33:33.800Z,100757.63
2019-05-17T12:36:02.308Z,100755.35
2019-05-17T12:38:31.096Z,100754.88
2019-05-17T12:40:59.895Z,100754.00
2019-05-17T12:43:28.671Z,100759.14
2019-05-17T12:46:00.907Z,100752.08
2019-05-17T12:48:27.371Z,100739.57
2019-05-17T12:50:55.875Z,100738.72
2019-05-17T12:53:24.361Z,100743.23
2019-05-17T12:55:52.854Z,100746.13
2019-05-17T12:58:21.742Z,100742.83
2019-05-17T13:00:50.535Z,100749.73
2019-05-17T13:03:19.271Z,100746.69
2019-05-17T13:05:47.767Z,100741.22
2019-05-17T13:08:16.245Z,100740.69
2019-05-17T13:10:44.772Z,100753.21
2019-05-17T13:13:13.226Z,100744.72
2019-05-17T13:15:41.725Z,100742.19
2019-05-17T13:18:10.579Z,100738.47
2019-05-17T13:20:39.441Z,100736.01
2019-05-17T13:23:08.217Z,100727.87
2019-05-17T13:25:36.736Z,100733.25
2019-05-17T13:28:05.323Z,100733.92
2019-05-17T13:30:33.811Z,100730.34
2019-05-17T13:33:02.320Z,100726.58
2019-05-17T13:35:30.831Z,100726.89
2019-05-17T13:37:59.305Z,100697.11
2019-05-17T13:40:27.962Z,100728.31
2019-05-17T13:42:56.432Z,100726.68
2019-05-17T13:45:24.973Z,100723.22
2019-05-17T13:47:53.470Z,100715.22
2019-05-17T13:50:21.989Z,100703.95
2019-05-17T13:52:50.449Z,100709.25
2019-05-17T13:55:18.927Z,100702.28
2019-05-17T13:57:47.439Z,100700.72
2019-05-17T14:00:15.915Z,100701.08
2019-05-17T14:02:44.393Z,100704.10
2019-05-17T14:05:13.736Z,100706.78
2019-05-17T14:07:42.220Z,100706.14
2019-05-17T14:10:26.100Z,100707.08
2019-05-17T14:12:40.951Z,100708.65
2019-05-17T14:15:09.707Z,100709.38
2019-05-17T14:17:38.281Z,100708.31
2019-05-17T14:20:06.730Z,100713.80
2019-05-17T14:22:36.091Z,100713.73
2019-05-17T14:25:05.127Z,100714.58
2019-05-17T14:27:33.634Z,100720.10
2019-05-17T14:30:02.321Z,100717.83
2019-05-17T14:32:30.786Z,100713.39
2019-05-17T14:34:59.290Z,100711.78
2019-05-17T14:37:27.824Z,100704.77
2019-05-17T14:39:56.610Z,100709.16
2019-05-17T14:42:25.102Z,100706.02
2019-05-17T14:44:53.884Z,100708.05
2019-05-17T14:47:22.391Z,100705.19
2019-05-17T14:49:51.316Z,100712.44
2019-05-17T14:52:19.815Z,100702.28
2019-05-17T14:54:48.807Z,100698.19
2019-05-17T14:57:17.295Z,100706.80
2019-05-17T14:59:45.812Z,100702.05
2019-05-17T15:02:14.331Z,100696.03
2019-05-17T15:04:42.778Z,100692.59
2019-05-17T15:07:11.583Z,100693.70
2019-05-17T15:09:40.039Z,100692.17
2019-05-17T15:12:08.520Z,100694.41
2019-05-17T15:14:37.026Z,100678.84
2019-05-17T15:17:05.872Z,100684.92
2019-05-17T15:19:34.395Z,100687.55
2019-05-17T15:22:02.912Z,100680.29
2019-05-17T15:24:31.738Z,100675.23
2019-05-17T15:27:05.221Z,100678.39
2019-05-17T15:29:30.440Z,100676.45
2019-05-17T15:31:58.931Z,100676.88
2019-05-17T15:34:27.528Z,100681.63
2019-05-17T15:36:56.263Z,100665.87
2019-05-17T15:39:24.781Z,100669.89
2019-05-17T15:41:53.282Z,100663.94
2019-05-17T15:44:21.748Z,100664.61
2019-05-17T15:46:50.224Z,100664.11
2019-05-17T15:49:19.345Z,100663.99
2019-05-17T15:51:47.802Z,100667.58
2019-05-17T15:54:16.301Z,100663.52
2019-05-17T15:56:45.034Z,100654.77
2019-05-17T15:59:13.562Z,100660.52
2019-05-17T16:01:42.070Z,100657.92
2019-05-17T16:04:10.801Z,100659.27
2019-05-17T16:06:39.314Z,100658.31
2019-05-17T16:09:08.562Z,100655.97
2019-05-17T16:11:37.340Z,100655.02
2019-05-17T16:14:05.824Z,100653.17
2019-05-17T16:16:34.648Z,100643.51
2019-05-17T16:19:03.425Z,100642.28
2019-05-17T16:21:32.213Z,100646.56
2019-05-17T16:24:01.019Z,100642.73
2019-05-17T16:26:29.517Z,100637.41
2019-05-17T16:28:58.009Z,100638.17
2019-05-17T16:31:26.507Z,100634.91
2019-05-17T16:33:54.981Z,100630.21
2019-05-17T16:36:23.483Z,100634.75
2019-05-17T16:38:51.946Z,100643.73
2019-05-17T16:41:20.498Z,100639.80
2019-05-17T16:43:49.005Z,100637.17
2019-05-17T16:46:17.458Z,100634.09
2019-05-17T16:48:45.941Z,100642.29
2019-05-17T16:51:14.443Z,100632.06
2019-05-17T16:53:42.969Z,100631.03
2019-05-17T16:56:11.487Z,100630.61
2019-05-17T16:58:39.961Z,100631.88
2019-05-17T17:01:08.471Z,100630.65
2019-05-17T17:03:44.357Z,100626.67
2019-05-17T17:06:10.303Z,100630.70
2019-05-17T17:08:37.761Z,100628.65
2019-05-17T17:11:06.234Z,100623.18
2019-05-17T17:13:34.750Z,100629.22
2019-05-17T17:16:03.335Z,100627.88
2019-05-17T17:18:32.217Z,100625.36
2019-05-17T17:21:00.700Z,100625.16
2019-05-17T17:23:29.178Z,100624.05
2019-05-17T17:25:57.954Z,100618.80
2019-05-17T17:28:26.437Z,100614.73
2019-05-17T17:30:54.922Z,100621.70
2019-05-17T17:33:23.403Z,100623.13
2019-05-17T17:35:51.897Z,100619.81
2019-05-17T17:38:20.749Z,100623.03
2019-05-17T17:40:49.279Z,100622.95
2019-05-17T17:43:17.795Z,100622.28
2019-05-17T17:45:46.313Z,100619.91
2019-05-17T17:48:14.795Z,100620.03
2019-05-17T17:50:43.977Z,100623.97
2019-05-17T17:53:12.453Z,100627.84
2019-05-17T17:55:41.220Z,100628.13
2019-05-17T17:58:09.728Z,100628.64
2019-05-17T18:00:38.235Z,100630.77
2019-05-17T18:03:06.729Z,100634.55
2019-05-17T18:05:35.241Z,100636.57
2019-05-17T18:08:03.751Z,100634.88
2019-05-17T18:10:32.754Z,100627.19
2019-05-17T18:13:01.540Z,100629.92
2019-05-17T18:15:41.824Z,100629.59
2019-05-17T18:18:10.409Z,100634.10
2019-05-17T18:20:38.881Z,100623.20
2019-05-17T18:23:07.559Z,100635.62
2019-05-17T18:25:36.335Z,100634.77
2019-05-17T18:28:04.896Z,100638.17
2019-05-17T18:30:33.448Z,100645.61
2019-05-17T18:33:02.028Z,100641.85
2019-05-17T18:35:30.767Z,100651.03
2019-05-17T18:37:59.255Z,100649.54
2019-05-17T18:40:28.051Z,100651.63
2019-05-17T18:42:56.532Z,100651.44
2019-05-17T18:45:25.035Z,100650.78
2019-05-17T18:47:53.805Z,100658.61
2019-05-17T18:50:22.304Z,100661.28
2019-05-17T18:52:50.865Z,100661.92
2019-05-17T18:55:19.381Z,100662.81
2019-05-17T18:57:47.904Z,100656.80
2019-05-17T19:00:17.295Z,100659.58
2019-05-17T19:02:46.071Z,100666.66
2019-05-17T19:05:14.560Z,100662.27
2019-05-17T19:07:43.057Z,100662.34
2019-05-17T19:10:11.692Z,100662.84
2019-05-17T19:12:40.205Z,100663.53
2019-05-17T19:15:10.186Z,100669.74
2019-05-17T19:17:38.740Z,100670.68
2019-05-17T19:20:07.300Z,100675.16
2019-05-17T19:22:35.797Z,100676.63
2019-05-17T19:25:05.202Z,100675.43
2019-05-17T19:27:33.697Z,100685.45
2019-05-17T19:30:02.262Z,100680.60
2019-05-17T19:32:30.711Z,100675.91
2019-05-17T19:34:59.214Z,100678.73
2019-05-17T19:37:27.706Z,100679.86
2019-05-17T19:39:56.219Z,100678.95
2019-05-17T19:42:24.706Z,100680.03
2019-05-17T19:44:58.954Z,100683.49
2019-05-17T19:47:24.072Z,100683.81
2019-05-17T19:49:52.656Z,100688.75
2019-05-17T19:52:21.163Z,100692.53
2019-05-17T19:54:49.677Z,100689.48
2019-05-17T19:57:18.192Z,100683.73
2019-05-17T19:59:47.009Z,100687.68
2019-05-17T20:02:15.564Z,100690.09
2019-05-17T20:04:44.068Z,100691.17
2019-05-17T20:07:12.863Z,100693.06
2019-05-17T20:09:41.613Z,100692.38
2019-05-17T20:12:10.098Z,100686.52
2019-05-17T20:14:38.580Z,100686.00
2019-05-17T20:17:07.075Z,100683.51
2019-05-17T20:19:35.576Z,100681.06
2019-05-17T20:22:04.119Z,100684.63
2019-05-17T20:24:32.632Z,100684.79
2019-05-17T20:27:01.146Z,100687.56
2019-05-17T20:29:29.677Z,100688.77
2019-05-17T20:31:58.175Z,100681.55
2019-05-17T20:34:26.692Z,100681.38
2019-05-17T20:36:55.253Z,100654.31
2019-05-17T20:39:23.858Z,100677.97
2019-05-17T20:41:52.441Z,100677.36
2019-05-17T20:44:20.948Z,100679.92
2019-05-17T20:46:49.452Z,100678.27
2019-05-17T20:49:18.037Z,100677.44
2019-05-17T20:51:46.564Z,100677.20
2019-05-17T20:54:15.156Z,100667.28
2019-05-17T20:56:43.925Z,100662.78
2019-05-17T20:59:12.753Z,100669.00
2019-05-17T21:01:41.230Z,100659.84
2019-05-17T21:04:09.836Z,100665.50
2019-05-17T21:06:38.649Z,100658.31
2019-05-17T21:09:07.922Z,100659.59
2019-05-17T21:11:36.471Z,100656.38
2019-05-17T21:14:05.353Z,100659.02
2019-05-17T21:16:33.822Z,100654.63
2019-05-17T21:19:02.625Z,100660.17
2019-05-17T21:21:31.113Z,100653.47
2019-05-17T21:23:59.726Z,100654.31
2019-05-17T21:26:28.224Z,100650.66
2019-05-17T21:28:56.703Z,100653.86
2019-05-17T21:31:25.187Z,100648.00
2019-05-17T21:33:53.666Z,100659.66
2019-05-17T21:36:22.194Z,100655.40
2019-05-17T21:38:50.684Z,100657.43
2019-05-17T21:41:19.211Z,100653.57
2019-05-17T21:43:47.705Z,100654.47
2019-05-17T21:46:16.203Z,100653.10
2019-05-17T21:48:44.770Z,100656.06
2019-05-17T21:51:13.264Z,100653.40
2019-05-17T21:53:41.777Z,100658.67
2019-05-17T21:56:10.486Z,100654.27
2019-05-17T21:58:38.965Z,100660.55
2019-05-17T22:01:17.478Z,100663.08
2019-05-17T22:03:45.990Z,100653.45
2019-05-17T22:06:14.591Z,100662.15
2019-05-17T22:08:43.073Z,100655.86
2019-05-17T22:11:11.549Z,100661.02
2019-05-17T22:13:40.134Z,100660.17
2019-05-17T22:16:19.275Z,100662.29
2019-05-17T22:18:38.864Z,100658.20
2019-05-17T22:21:07.442Z,100658.72
2019-05-17T22:23:35.963Z,100650.55
2019-05-17T22:26:04.494Z,100649.36
2019-05-17T22:28:32.986Z,100648.52
2019-05-17T22:31:01.468Z,100650.03
2019-05-17T22:33:30.173Z,100650.75
2019-05-17T22:35:58.655Z,100650.31
2019-05-17T22:38:27.653Z,100645.30
2019-05-17T22:40:56.147Z,100650.64
2019-05-17T22:43:24.648Z,100645.27
2019-05-17T22:45:53.126Z,100656.52
2019-05-17T22:48:21.615Z,100647.73
2019-05-17T22:50:50.420Z,100644.69
2019-05-17T22:53:18.924Z,100650.71
2019-05-17T22:55:47.451Z,100644.85
2019-05-17T22:58:15.938Z,100642.33
2019-05-17T23:00:44.745Z,100643.69
2019-05-17T23:03:13.256Z,100640.77
2019-05-17T23:05:41.840Z,100642.88
2019-05-17T23:08:10.320Z,100638.09
2019-05-17T23:10:38.820Z,100639.88
2019-05-17T23:13:07.317Z,100635.80
2019-05-17T23:15:54.852Z,100635.47
2019-05-17T23:18:23.366Z,100633.64
2019-05-17T23:20:51.857Z,100631.16
2019-05-17T23:23:20.356Z,100634.67
2019-05-17T23:25:48.836Z,100621.39
2019-05-17T23:28:17.389Z,100625.48
2019-05-17T23:30:46.185Z,100624.25
2019-05-17T23:33:14.786Z,100623.92
2019-05-17T23:35:43.277Z,100621.02
2019-05-17T23:38:12.139Z,100627.30
2019-05-17T23:40:40.641Z,100628.47
2019-05-17T23:43:09.127Z,100622.38
2019-05-17T23:45:37.617Z,100627.12
2019-05-17T23:48:06.140Z,100622.45
2019-05-17T23:50:34.642Z,100625.70
2019-05-17T23:53:03.143Z,100627.16
2019-05-17T23:55:31.637Z,100616.45
2019-05-17T23:58:00.507Z,100621.58
